createdAt,value
2023-05-12T00:00:52.928Z,29.50
2023-05-12T00:01:52.915Z,29.40
2023-05-12T00:02:52.940Z,36.40
2023-05-12T00:03:52.994Z,25.90
2023-05-12T00:04:52.996Z,30.80
2023-05-12T00:05:53.025Z,27.80
2023-05-12T00:06:52.873Z,28.60
2023-05-12T00:07:52.822Z,22.40
2023-05-12T00:08:52.817Z,23.30
2023-05-12T00:09:52.836Z,20.10
2023-05-12T00:10:52.811Z,21.40
2023-05-12T00:11:52.900Z,21.60
2023-05-12T00:12:52.843Z,23.10
2023-05-12T00:13:52.792Z,22.10
2023-05-12T00:14:52.781Z,21.90
2023-05-12T00:15:52.867Z,34.10
2023-05-12T00:16:52.854Z,35.20
2023-05-12T00:17:52.745Z,25.20
2023-05-12T00:18:52.788Z,21.30
2023-05-12T00:19:52.766Z,20.70
2023-05-12T00:20:52.798Z,24.60
2023-05-12T00:21:52.633Z,29.60
2023-05-12T00:22:52.645Z,20.80
2023-05-12T00:23:52.633Z,22.00
2023-05-12T00:24:52.586Z,19.30
2023-05-12T00:25:52.574Z,21.00
2023-05-12T00:26:52.623Z,16.30
2023-05-12T00:27:52.733Z,19.60
2023-05-12T00:28:52.582Z,18.30
2023-05-12T00:29:52.594Z,19.10
2023-05-12T00:30:52.520Z,17.60
2023-05-12T00:31:52.567Z,16.40
2023-05-12T00:32:52.648Z,19.90
2023-05-12T00:33:52.530Z,19.40
2023-05-12T00:34:52.473Z,19.10
2023-05-12T00:35:52.425Z,26.30
2023-05-12T00:36:52.418Z,18.30
2023-05-12T00:37:52.523Z,25.50
2023-05-12T00:38:52.379Z,20.00
2023-05-12T00:39:52.368Z,22.90
2023-05-12T00:40:52.446Z,19.10
2023-05-12T00:41:52.378Z,25.10
2023-05-12T00:42:52.372Z,19.40
2023-05-12T00:43:52.323Z,20.20
2023-05-12T00:44:52.348Z,24.70
2023-05-12T00:45:52.316Z,19.80
2023-05-12T00:46:52.331Z,23.00
2023-05-12T00:47:52.445Z,23.20
2023-05-12T00:48:52.250Z,23.60
2023-05-12T00:49:52.419Z,34.30
2023-05-12T00:50:52.240Z,30.30
2023-05-12T00:51:52.212Z,29.90
2023-05-12T00:52:52.296Z,27.80
2023-05-12T00:53:52.225Z,32.70
2023-05-12T00:54:52.259Z,31.50
2023-05-12T00:55:52.293Z,46.60
2023-05-12T00:56:52.138Z,50.90
2023-05-12T00:57:52.210Z,40.40
2023-05-12T00:58:52.161Z,41.60
2023-05-12T00:59:52.119Z,66.00
2023-05-12T01:00:52.143Z,45.60
2023-05-12T01:01:52.112Z,46.10
2023-05-12T01:02:52.221Z,56.70
2023-05-12T01:03:52.069Z,48.30
2023-05-12T01:04:52.027Z,56.20
2023-05-12T01:05:52.011Z,44.70
2023-05-12T01:06:52.039Z,51.60
2023-05-12T01:07:52.053Z,50.30
2023-05-12T01:08:51.956Z,51.20
2023-05-12T01:09:51.987Z,70.20
2023-05-12T01:10:51.918Z,65.40
2023-05-12T01:11:51.956Z,58.50
2023-05-12T01:12:52.048Z,69.10
2023-05-12T01:13:51.948Z,58.20
2023-05-12T01:14:51.906Z,52.00
2023-05-12T01:15:51.869Z,54.10
2023-05-12T01:16:51.893Z,58.50
2023-05-12T01:17:52.008Z,46.90
2023-05-12T01:18:51.903Z,65.10
2023-05-12T01:19:51.813Z,63.90
2023-05-12T01:20:51.797Z,98.30
2023-05-12T01:21:51.787Z,67.30
2023-05-12T01:22:51.834Z,56.80
2023-05-12T01:23:51.752Z,64.80
2023-05-12T01:24:51.801Z,52.10
2023-05-12T01:25:51.735Z,49.60
2023-05-12T01:28:25.499Z,67.40
2023-05-12T01:30:59.893Z,58.20
2023-05-12T01:31:52.681Z,51.40
2023-05-12T01:32:43.806Z,97.70
2023-05-12T01:33:42.057Z,51.10
2023-05-12T01:34:41.143Z,56.60
2023-05-12T01:35:46.808Z,51.20
2023-05-12T01:36:41.091Z,43.50
2023-05-12T01:37:57.611Z,52.30
2023-05-12T01:39:53.941Z,46.00
2023-05-12T01:40:53.258Z,40.00
2023-05-12T01:41:53.270Z,43.00
2023-05-12T01:42:53.180Z,41.50
2023-05-12T01:43:53.244Z,41.00
2023-05-12T01:44:53.155Z,46.20
2023-05-12T01:45:53.166Z,43.20
2023-05-12T01:46:53.208Z,42.10
2023-05-12T01:47:53.225Z,40.40
2023-05-12T01:48:53.268Z,42.60
2023-05-12T01:49:53.114Z,39.40
2023-05-12T01:50:53.121Z,41.20
2023-05-12T01:51:53.093Z,48.80
2023-05-12T01:52:53.052Z,45.40
2023-05-12T01:53:53.147Z,41.80
2023-05-12T01:54:53.070Z,39.40
2023-05-12T01:55:53.006Z,41.40
2023-05-12T01:56:52.993Z,37.00
2023-05-12T01:57:53.060Z,37.50
2023-05-12T01:58:53.051Z,37.40
2023-05-12T01:59:52.952Z,38.90
2023-05-12T02:00:52.969Z,34.50
2023-05-12T02:01:53.072Z,39.80
2023-05-12T02:02:53.056Z,40.70
2023-05-12T02:03:53.091Z,37.40
2023-05-12T02:04:53.063Z,38.80
2023-05-12T02:05:52.875Z,41.50
2023-05-12T02:06:52.920Z,37.40
2023-05-12T02:07:52.844Z,36.70
2023-05-12T02:08:52.872Z,33.60
2023-05-12T02:09:52.873Z,36.70
2023-05-12T02:10:52.817Z,41.90
2023-05-12T02:11:52.782Z,35.40
2023-05-12T02:12:52.789Z,40.20
2023-05-12T02:13:52.773Z,47.70
2023-05-12T02:14:52.766Z,38.30
2023-05-12T02:15:52.792Z,41.70
2023-05-12T02:16:53.040Z,36.70
2023-05-12T02:17:52.771Z,35.60
2023-05-12T02:18:52.868Z,31.80
2023-05-12T02:19:52.705Z,34.20
2023-05-12T02:20:52.677Z,32.10
2023-05-12T02:21:52.667Z,31.80
2023-05-12T02:22:52.671Z,31.40
2023-05-12T02:23:52.697Z,38.90
2023-05-12T02:24:52.690Z,32.00
2023-05-12T02:25:52.714Z,32.40
2023-05-12T02:26:52.627Z,29.80
2023-05-12T02:27:52.651Z,32.00
2023-05-12T02:28:52.675Z,29.70
2023-05-12T02:29:52.613Z,22.90
2023-05-12T02:30:52.588Z,26.40
2023-05-12T02:31:52.609Z,26.40
2023-05-12T02:32:52.578Z,21.40
2023-05-12T02:33:52.541Z,20.60
2023-05-12T02:34:52.549Z,17.80
2023-05-12T02:35:52.558Z,16.30
2023-05-12T02:36:52.488Z,19.40
2023-05-12T02:37:52.621Z,18.90
2023-05-12T02:38:52.508Z,18.60
2023-05-12T02:39:52.467Z,20.30
2023-05-12T02:40:52.513Z,15.00
2023-05-12T02:41:52.406Z,14.30
2023-05-12T02:42:52.525Z,13.60
2023-05-12T02:43:52.415Z,11.90
2023-05-12T02:44:52.478Z,12.70
2023-05-12T02:45:52.390Z,12.80
2023-05-12T02:46:52.352Z,11.60
2023-05-12T02:47:52.485Z,10.80
2023-05-12T02:48:52.435Z,10.50
2023-05-12T02:49:52.380Z,10.70
2023-05-12T02:50:52.365Z,10.00
2023-05-12T02:51:52.366Z,9.80
2023-05-12T02:52:52.303Z,9.40
2023-05-12T02:53:52.294Z,8.60
2023-05-12T02:54:52.212Z,11.70
2023-05-12T02:55:52.228Z,9.10
2023-05-12T02:56:52.361Z,9.20
2023-05-12T02:57:52.265Z,10.50
2023-05-12T02:58:52.295Z,9.20
2023-05-12T02:59:52.436Z,9.70
2023-05-12T03:01:00.073Z,9.20
2023-05-12T03:01:53.227Z,8.60
2023-05-12T03:02:52.400Z,8.30
2023-05-12T03:03:52.423Z,9.10
2023-05-12T03:04:52.198Z,8.10
2023-05-12T03:05:52.283Z,8.80
2023-05-12T03:07:03.344Z,9.10
2023-05-12T03:07:52.061Z,9.20
2023-05-12T03:08:52.039Z,8.90
2023-05-12T03:09:52.005Z,7.70
2023-05-12T03:10:52.063Z,7.80
2023-05-12T03:11:52.194Z,8.00
2023-05-12T03:12:52.141Z,8.90
2023-05-12T03:13:52.037Z,9.30
2023-05-12T03:14:52.045Z,9.60
2023-05-12T03:15:52.122Z,9.20
2023-05-12T03:16:52.054Z,9.20
2023-05-12T03:17:52.077Z,8.40
2023-05-12T03:18:51.995Z,8.50
2023-05-12T03:19:51.976Z,7.50
2023-05-12T03:20:52.242Z,7.20
2023-05-12T03:21:51.887Z,7.90
2023-05-12T03:22:51.924Z,7.40
2023-05-12T03:23:52.002Z,7.70
2023-05-12T03:24:52.008Z,7.80
2023-05-12T03:25:51.858Z,8.10
2023-05-12T03:26:52.045Z,8.20
2023-05-12T03:27:51.848Z,8.60
2023-05-12T03:28:51.892Z,7.30
2023-05-12T03:29:51.931Z,8.20
2023-05-12T03:30:51.722Z,9.40
2023-05-12T03:31:51.806Z,10.50
2023-05-12T03:32:51.871Z,10.40
2023-05-12T03:33:51.728Z,10.10
2023-05-12T03:34:51.819Z,9.80
2023-05-12T03:35:51.898Z,11.60
2023-05-12T03:36:51.692Z,8.90
2023-05-12T03:37:51.677Z,8.50
2023-05-12T03:38:51.726Z,8.70
2023-05-12T03:39:51.755Z,8.60
2023-05-12T03:40:51.680Z,9.40
2023-05-12T03:41:51.737Z,8.30
2023-05-12T03:42:51.616Z,8.10
2023-05-12T03:43:51.556Z,10.80
2023-05-12T03:44:51.525Z,11.20
2023-05-12T03:45:51.586Z,13.90
2023-05-12T03:46:51.615Z,15.40
2023-05-12T03:47:51.547Z,14.60
2023-05-12T03:48:51.560Z,18.10
2023-05-12T03:49:51.485Z,19.00
2023-05-12T03:50:51.493Z,21.50
2023-05-12T03:51:51.546Z,19.50
2023-05-12T03:52:51.561Z,22.50
2023-05-12T03:53:51.494Z,22.00
2023-05-12T03:54:51.547Z,24.00
2023-05-12T03:55:51.468Z,24.30
2023-05-12T03:56:51.512Z,25.90
2023-05-12T03:57:51.485Z,25.00
2023-05-12T03:58:51.382Z,25.40
2023-05-12T03:59:51.448Z,29.20
2023-05-12T04:00:51.333Z,24.60
2023-05-12T04:01:51.604Z,25.40
2023-05-12T04:02:51.535Z,28.10
2023-05-12T04:03:51.469Z,26.10
2023-05-12T04:04:51.275Z,28.60
2023-05-12T04:05:51.258Z,28.50
2023-05-12T04:06:51.222Z,25.60
2023-05-12T04:07:51.368Z,27.30
2023-05-12T04:08:51.350Z,34.60
2023-05-12T04:09:51.221Z,32.60
2023-05-12T04:10:51.278Z,24.60
2023-05-12T04:11:51.373Z,26.80
2023-05-12T04:12:51.280Z,27.50
2023-05-12T04:13:51.217Z,26.60
2023-05-12T04:14:51.159Z,25.10
2023-05-12T04:15:51.253Z,27.80
2023-05-12T04:16:51.251Z,24.70
2023-05-12T04:17:51.268Z,34.90
2023-05-12T04:18:51.298Z,24.90
2023-05-12T04:19:51.176Z,27.50
2023-05-12T04:20:51.120Z,26.50
2023-05-12T04:21:51.163Z,24.20
2023-05-12T04:22:51.284Z,28.60
2023-05-12T04:23:51.047Z,26.20
2023-05-12T04:24:51.100Z,24.00
2023-05-12T04:25:51.119Z,21.80
2023-05-12T04:26:51.041Z,21.00
2023-05-12T04:27:51.012Z,29.50
2023-05-12T04:28:50.975Z,23.50
2023-05-12T04:29:50.903Z,22.90
2023-05-12T04:30:50.975Z,20.60
2023-05-12T04:31:51.070Z,20.00
2023-05-12T04:32:50.980Z,19.10
2023-05-12T04:33:50.918Z,19.40
2023-05-12T04:34:50.937Z,20.00
2023-05-12T04:35:50.839Z,25.70
2023-05-12T04:36:50.849Z,20.50
2023-05-12T04:37:50.885Z,17.20
2023-05-12T04:38:50.798Z,25.80
2023-05-12T04:39:50.855Z,19.10
2023-05-12T04:40:50.845Z,17.20
2023-05-12T04:41:50.862Z,17.40
2023-05-12T04:42:50.748Z,17.20
2023-05-12T04:44:50.702Z,18.90
2023-05-12T04:45:50.701Z,21.10
2023-05-12T04:46:50.663Z,17.90
2023-05-12T04:47:50.759Z,18.00
2023-05-12T04:48:50.710Z,16.60
2023-05-12T04:49:50.623Z,16.70
2023-05-12T04:50:50.671Z,17.10
2023-05-12T04:51:50.665Z,19.70
2023-05-12T04:52:50.668Z,16.00
2023-05-12T04:53:50.617Z,14.30
2023-05-12T04:54:50.593Z,14.10
2023-05-12T04:55:50.630Z,15.70
2023-05-12T04:56:50.575Z,14.00
2023-05-12T04:57:50.515Z,14.50
2023-05-12T04:58:50.610Z,13.50
2023-05-12T04:59:50.691Z,13.40
2023-05-12T05:00:50.564Z,13.90
2023-05-12T05:01:50.641Z,13.10
2023-05-12T05:02:50.567Z,15.80
2023-05-12T05:03:50.631Z,14.60
2023-05-12T05:04:50.603Z,15.80
2023-05-12T05:05:50.632Z,13.40
2023-05-12T05:06:50.474Z,12.10
2023-05-12T05:07:50.402Z,12.20
2023-05-12T05:08:50.385Z,11.80
2023-05-12T05:09:50.426Z,12.40
2023-05-12T05:10:50.399Z,13.60
2023-05-12T05:11:50.529Z,11.40
2023-05-12T05:12:50.324Z,11.30
2023-05-12T05:13:50.418Z,11.40
2023-05-12T05:14:50.321Z,11.20
2023-05-12T05:15:50.354Z,11.40
2023-05-12T05:16:50.369Z,14.00
2023-05-12T05:17:50.315Z,13.90
2023-05-12T05:18:50.276Z,12.40
2023-05-12T05:19:58.344Z,11.50
2023-05-12T05:20:57.866Z,11.00
2023-05-12T05:21:51.209Z,11.00
2023-05-12T05:22:50.176Z,11.40
2023-05-12T05:23:50.161Z,10.80
2023-05-12T05:24:50.208Z,10.90
2023-05-12T05:25:50.116Z,11.60
2023-05-12T05:26:50.137Z,11.40
2023-05-12T05:27:50.107Z,11.10
2023-05-12T05:28:50.161Z,10.70
2023-05-12T05:29:50.070Z,10.30
2023-05-12T05:30:50.111Z,9.80
2023-05-12T05:31:50.130Z,10.50
2023-05-12T05:32:50.127Z,11.20
2023-05-12T05:33:50.054Z,10.30
2023-05-12T05:34:49.998Z,10.20
2023-05-12T05:35:49.988Z,9.80
2023-05-12T05:36:50.055Z,9.60
2023-05-12T05:37:50.009Z,10.00
2023-05-12T05:38:49.960Z,10.70
2023-05-12T05:39:49.992Z,9.60
2023-05-12T05:40:53.615Z,9.20
2023-05-12T05:41:49.914Z,9.50
2023-05-12T05:42:49.924Z,9.50
2023-05-12T05:43:49.987Z,9.70
2023-05-12T05:44:49.882Z,9.40
2023-05-12T05:45:50.142Z,9.90
2023-05-12T05:46:49.967Z,8.30
2023-05-12T05:47:49.921Z,8.20
2023-05-12T05:48:49.830Z,14.50
2023-05-12T05:49:49.858Z,10.10
2023-05-12T05:50:49.812Z,10.50
2023-05-12T05:51:49.776Z,8.10
2023-05-12T05:52:49.842Z,8.70
2023-05-12T05:53:49.793Z,7.90
2023-05-12T05:54:49.763Z,8.10
2023-05-12T05:55:49.788Z,7.10
2023-05-12T05:56:49.770Z,7.30
2023-05-12T05:57:49.707Z,6.30
2023-05-12T05:58:49.851Z,6.00
2023-05-12T05:59:49.806Z,5.70
2023-05-12T06:00:49.782Z,5.70
2023-05-12T06:01:49.735Z,5.10
2023-05-12T06:02:49.923Z,5.10
2023-05-12T06:03:49.940Z,4.70
2023-05-12T06:04:49.691Z,6.00
2023-05-12T06:05:49.637Z,5.20
2023-05-12T06:06:49.672Z,4.70
2023-05-12T06:07:49.634Z,4.90
2023-05-12T06:08:49.599Z,5.00
2023-05-12T06:09:49.664Z,4.80
2023-05-12T06:10:49.567Z,5.10
2023-05-12T06:11:49.607Z,4.70
2023-05-12T06:12:49.551Z,4.60
2023-05-12T06:13:49.726Z,4.60
2023-05-12T06:14:49.514Z,7.40
2023-05-12T06:15:49.493Z,4.60
2023-05-12T06:16:49.476Z,4.60
2023-05-12T06:17:49.470Z,6.70
2023-05-12T06:18:49.450Z,4.80
2023-05-12T06:19:49.497Z,5.30
2023-05-12T06:20:49.427Z,5.20
2023-05-12T06:21:49.524Z,4.60
2023-05-12T06:22:49.445Z,4.80
2023-05-12T06:23:49.385Z,4.80
2023-05-12T06:24:49.420Z,5.40
2023-05-12T06:25:49.303Z,5.00
2023-05-12T06:26:49.321Z,4.80
2023-05-12T06:27:49.297Z,4.60
2023-05-12T06:28:49.521Z,5.50
2023-05-12T06:29:49.322Z,4.70
2023-05-12T06:30:49.282Z,5.30
2023-05-12T06:31:49.298Z,5.40
2023-05-12T06:32:49.387Z,5.30
2023-05-12T06:33:49.359Z,4.80
2023-05-12T06:34:49.251Z,5.30
2023-05-12T06:35:49.224Z,5.30
2023-05-12T06:36:49.196Z,5.70
2023-05-12T06:37:49.233Z,5.60
2023-05-12T06:38:49.268Z,5.50
2023-05-12T06:39:49.353Z,5.90
2023-05-12T06:40:49.176Z,5.80
2023-05-12T06:41:49.206Z,6.50
2023-05-12T06:42:49.200Z,5.60
2023-05-12T06:43:49.113Z,6.10
2023-05-12T06:44:49.194Z,5.60
2023-05-12T06:45:49.202Z,5.90
2023-05-12T06:46:49.174Z,5.80
2023-05-12T06:47:49.090Z,5.40
2023-05-12T06:48:49.274Z,5.30
2023-05-12T06:49:49.071Z,5.70
2023-05-12T06:50:49.054Z,5.30
2023-05-12T06:51:48.997Z,5.50
2023-05-12T06:52:49.090Z,5.50
2023-05-12T06:53:49.058Z,5.80
2023-05-12T06:54:48.977Z,5.50
2023-05-12T06:55:56.631Z,5.30
2023-05-12T06:56:48.944Z,5.40
2023-05-12T06:57:48.940Z,5.60
2023-05-12T06:58:48.890Z,6.00
2023-05-12T06:59:48.952Z,5.60
2023-05-12T07:00:48.970Z,5.70
2023-05-12T07:01:48.985Z,5.50
2023-05-12T07:02:48.923Z,5.30
2023-05-12T07:03:48.825Z,5.40
2023-05-12T07:04:48.831Z,5.80
2023-05-12T07:05:48.939Z,5.40
2023-05-12T07:06:48.905Z,5.20
2023-05-12T07:07:49.060Z,5.40
2023-05-12T07:08:48.772Z,5.60
2023-05-12T07:09:48.840Z,5.10
2023-05-12T07:10:48.759Z,6.10
2023-05-12T07:11:48.724Z,7.50
2023-05-12T07:12:48.736Z,5.10
2023-05-12T07:13:48.765Z,5.30
2023-05-12T07:14:48.781Z,4.80
2023-05-12T07:15:48.733Z,4.50
2023-05-12T07:16:48.800Z,4.80
2023-05-12T07:17:48.788Z,4.80
2023-05-12T07:18:48.680Z,5.60
2023-05-12T07:19:48.690Z,4.80
2023-05-12T07:20:48.657Z,4.60
2023-05-12T07:21:48.629Z,4.50
2023-05-12T07:22:48.581Z,5.20
2023-05-12T07:23:48.717Z,4.80
2023-05-12T07:24:48.664Z,4.70
2023-05-12T07:25:48.561Z,4.60
2023-05-12T07:26:48.566Z,4.60
2023-05-12T07:27:48.670Z,4.60
2023-05-12T07:28:48.572Z,4.50
2023-05-12T07:29:48.475Z,5.90
2023-05-12T07:30:48.487Z,5.10
2023-05-12T07:31:48.680Z,4.30
2023-05-12T07:32:48.512Z,4.50
2023-05-12T07:33:48.465Z,4.30
2023-05-12T07:34:48.424Z,5.20
2023-05-12T07:35:48.624Z,5.00
2023-05-12T07:36:48.386Z,4.20
2023-05-12T07:37:48.422Z,4.70
2023-05-12T07:38:48.393Z,5.00
2023-05-12T07:39:48.356Z,4.40
2023-05-12T07:40:48.374Z,4.30
2023-05-12T07:41:48.406Z,4.40
2023-05-12T07:42:48.494Z,4.80
2023-05-12T07:43:48.334Z,4.80
2023-05-12T07:44:48.278Z,4.70
2023-05-12T07:45:48.291Z,4.70
2023-05-12T07:46:48.423Z,5.00
2023-05-12T07:47:48.474Z,4.50
2023-05-12T07:48:48.300Z,4.80
2023-05-12T07:49:48.199Z,4.80
2023-05-12T07:50:48.286Z,5.00
2023-05-12T07:51:48.282Z,4.40
2023-05-12T07:52:48.198Z,4.80
2023-05-12T07:53:48.175Z,5.70
2023-05-12T07:54:48.164Z,4.50
2023-05-12T07:55:48.225Z,4.10
2023-05-12T07:56:48.089Z,4.80
2023-05-12T07:57:48.115Z,4.50
2023-05-12T07:58:48.101Z,4.40
2023-05-12T07:59:48.070Z,4.80
2023-05-12T08:00:48.222Z,4.90
2023-05-12T08:01:48.067Z,4.70
2023-05-12T08:02:48.190Z,5.10
2023-05-12T08:03:48.148Z,4.80
2023-05-12T08:04:48.042Z,4.80
2023-05-12T08:05:48.029Z,4.40
2023-05-12T08:06:47.984Z,5.40
2023-05-12T08:07:48.007Z,5.10
2023-05-12T08:08:48.016Z,4.60
2023-05-12T08:09:47.995Z,5.10
2023-05-12T08:10:47.944Z,5.50
2023-05-12T08:11:50.104Z,7.10
2023-05-12T08:12:48.062Z,5.50
2023-05-12T08:13:47.991Z,5.70
2023-05-12T08:14:47.952Z,5.00
2023-05-12T08:15:47.886Z,5.10
2023-05-12T08:16:47.875Z,4.50
2023-05-12T08:17:48.017Z,4.80
2023-05-12T08:18:48.039Z,4.80
2023-05-12T08:19:47.820Z,4.50
2023-05-12T08:20:47.815Z,4.00
2023-05-12T08:21:47.786Z,5.10
2023-05-12T08:22:47.758Z,5.60
2023-05-12T08:23:47.791Z,4.70
2023-05-12T08:24:47.740Z,4.80
2023-05-12T08:25:47.746Z,4.70
2023-05-12T08:26:47.726Z,4.60
2023-05-12T08:27:47.702Z,10.00
2023-05-12T08:28:47.727Z,4.50
2023-05-12T08:29:47.651Z,4.90
2023-05-12T08:30:47.719Z,4.80
2023-05-12T08:31:47.764Z,4.40
2023-05-12T08:32:47.887Z,4.40
2023-05-12T08:33:51.978Z,5.40
2023-05-12T08:34:48.603Z,4.50
2023-05-12T08:35:47.667Z,4.10
2023-05-12T08:36:47.596Z,4.30
2023-05-12T08:37:47.739Z,4.50
2023-05-12T08:38:47.545Z,4.00
2023-05-12T08:39:47.559Z,5.20
2023-05-12T08:40:47.567Z,4.10
2023-05-12T08:41:47.523Z,3.70
2023-05-12T08:42:47.516Z,4.10
2023-05-12T08:43:47.532Z,5.30
2023-05-12T08:44:47.508Z,3.90
2023-05-12T08:45:47.442Z,3.90
2023-05-12T08:46:47.597Z,3.60
2023-05-12T08:47:47.566Z,4.80
2023-05-12T08:48:47.499Z,3.80
2023-05-12T08:49:47.569Z,3.20
2023-05-12T08:50:47.466Z,4.50
2023-05-12T08:51:56.859Z,3.20
2023-05-12T08:52:48.403Z,3.60
2023-05-12T08:53:47.425Z,4.70
2023-05-12T08:54:55.557Z,3.30
2023-05-12T08:56:01.168Z,3.70
2023-05-12T08:57:47.311Z,6.00
2023-05-12T08:58:47.497Z,4.60
2023-05-12T08:59:47.301Z,4.40
2023-05-12T09:00:47.277Z,4.30
2023-05-12T09:01:47.291Z,4.20
2023-05-12T09:02:53.116Z,4.70
2023-05-12T09:03:48.242Z,4.30
2023-05-12T09:04:47.265Z,3.90
2023-05-12T09:05:47.175Z,4.00
2023-05-12T09:06:47.227Z,4.00
2023-05-12T09:07:47.314Z,3.70
2023-05-12T09:08:47.159Z,4.40
2023-05-12T09:09:47.113Z,3.90
2023-05-12T09:10:47.249Z,4.10
2023-05-12T09:11:47.125Z,4.40
2023-05-12T09:12:47.119Z,5.00
2023-05-12T09:13:47.205Z,4.10
2023-05-12T09:14:47.135Z,4.00
2023-05-12T09:15:47.055Z,3.20
2023-05-12T09:16:47.223Z,5.40
2023-05-12T09:17:47.248Z,3.60
2023-05-12T09:18:47.113Z,3.40
2023-05-12T09:19:47.094Z,4.00
2023-05-12T09:20:47.100Z,3.90
2023-05-12T09:21:47.021Z,3.60
2023-05-12T09:22:46.937Z,3.70
2023-05-12T09:23:47.030Z,3.70
2023-05-12T09:24:46.950Z,4.60
2023-05-12T09:25:47.131Z,3.00
2023-05-12T09:26:46.941Z,5.00
2023-05-12T09:27:46.919Z,5.10
2023-05-12T09:28:46.965Z,3.90
2023-05-12T09:29:55.589Z,3.20
2023-05-12T09:30:47.848Z,3.20
2023-05-12T09:31:46.916Z,3.40
2023-05-12T09:32:46.865Z,4.10
2023-05-12T09:33:46.813Z,3.30
2023-05-12T09:34:46.800Z,2.80
2023-05-12T09:35:46.945Z,3.80
2023-05-12T09:36:46.792Z,2.80
2023-05-12T09:37:46.763Z,4.00
2023-05-12T09:38:46.787Z,3.30
2023-05-12T09:39:46.798Z,3.40
2023-05-12T09:40:46.743Z,5.00
2023-05-12T09:41:46.822Z,2.90
2023-05-12T09:42:46.685Z,3.20
2023-05-12T09:43:46.687Z,3.40
2023-05-12T09:44:46.692Z,4.50
2023-05-12T09:45:46.766Z,2.70
2023-05-12T09:46:46.636Z,3.40
2023-05-12T09:47:46.674Z,2.50
2023-05-12T09:48:46.682Z,4.00
2023-05-12T09:49:46.666Z,3.90
2023-05-12T09:50:48.083Z,2.70
2023-05-12T09:51:46.713Z,2.80
2023-05-12T09:52:46.618Z,2.90
2023-05-12T09:53:46.552Z,3.60
2023-05-12T09:54:46.653Z,2.60
2023-05-12T09:55:46.573Z,2.60
2023-05-12T09:56:46.500Z,3.90
2023-05-12T09:57:46.503Z,2.90
2023-05-12T09:58:46.700Z,2.70
2023-05-12T09:59:46.622Z,2.20
2023-05-12T10:01:46.501Z,2.30
2023-05-12T10:02:46.472Z,3.60
2023-05-12T10:03:46.398Z,3.20
2023-05-12T10:04:46.517Z,3.30
2023-05-12T10:05:46.434Z,2.30
2023-05-12T10:06:46.436Z,2.10
2023-05-12T10:07:46.347Z,2.80
2023-05-12T10:08:46.411Z,3.00
2023-05-12T10:09:46.334Z,3.10
2023-05-12T10:10:46.357Z,4.10
2023-05-12T10:11:46.266Z,3.20
2023-05-12T10:12:46.323Z,2.20
2023-05-12T10:13:46.276Z,2.50
2023-05-12T10:14:46.442Z,2.80
2023-05-12T10:15:46.327Z,2.20
2023-05-12T10:16:46.449Z,3.10
2023-05-12T10:17:46.318Z,3.00
2023-05-12T10:18:46.422Z,3.20
2023-05-12T10:19:46.318Z,3.50
2023-05-12T10:20:46.289Z,4.40
2023-05-12T10:21:46.501Z,2.70
2023-05-12T10:22:46.220Z,2.50
2023-05-12T10:23:46.273Z,4.80
2023-05-12T10:24:46.293Z,3.50
2023-05-12T10:25:46.480Z,2.40
2023-05-12T10:26:46.147Z,2.10
2023-05-12T10:27:46.640Z,2.00
2023-05-12T10:28:46.166Z,4.00
2023-05-12T10:29:46.101Z,2.60
2023-05-12T10:30:46.153Z,2.20
2023-05-12T12:11:41.854Z,3.20
2023-05-12T12:12:41.943Z,2.90
2023-05-12T12:13:41.803Z,2.70
2023-05-12T12:14:41.807Z,2.70
2023-05-12T12:15:41.881Z,2.50
2023-05-12T12:16:41.855Z,2.70
2023-05-12T12:17:41.766Z,2.50
2023-05-12T12:19:04.699Z,2.40
2023-05-12T12:19:41.817Z,2.10
2023-05-12T12:20:41.697Z,2.80
2023-05-12T12:21:41.699Z,2.80
2023-05-12T12:22:41.762Z,5.00
2023-05-12T12:23:50.915Z,2.10
2023-05-12T12:24:42.606Z,2.10
2023-05-12T12:25:41.766Z,3.00
2023-05-12T12:26:41.782Z,2.30
2023-05-12T12:27:42.478Z,2.30
2023-05-12T12:28:42.262Z,2.70
2023-05-12T12:29:41.914Z,2.20
2023-05-12T12:30:43.015Z,2.30
2023-05-12T12:31:41.745Z,2.70
2023-05-12T12:32:45.834Z,2.80
2023-05-12T12:33:51.016Z,4.10
2023-05-12T12:34:42.768Z,2.60
2023-05-12T12:35:42.201Z,2.70
2023-05-12T12:36:41.556Z,2.40
2023-05-12T12:37:41.567Z,3.50
2023-05-12T12:38:43.431Z,2.60
2023-05-12T12:39:44.672Z,2.80
2023-05-12T12:40:41.546Z,5.30
2023-05-12T12:41:41.471Z,2.40
2023-05-12T12:42:41.480Z,2.30
2023-05-12T12:43:41.496Z,2.40
2023-05-12T12:44:41.453Z,2.40
2023-05-12T12:45:41.465Z,4.30
2023-05-12T12:46:41.558Z,2.50
2023-05-12T12:47:42.211Z,3.40
2023-05-12T12:48:41.452Z,3.10
2023-05-12T12:49:41.660Z,3.20
2023-05-12T12:50:41.456Z,3.50
2023-05-12T12:51:46.134Z,2.60
2023-05-12T12:52:42.300Z,2.40
2023-05-12T12:53:41.341Z,2.60
2023-05-12T12:54:41.315Z,2.60
2023-05-12T12:55:54.716Z,2.40
2023-05-12T12:56:41.312Z,2.90
2023-05-12T12:57:41.327Z,3.00
2023-05-12T12:58:41.463Z,2.90
2023-05-12T12:59:41.238Z,2.20
2023-05-12T13:00:45.573Z,2.40
2023-05-12T13:01:41.302Z,2.60
2023-05-12T13:02:41.287Z,2.80
2023-05-12T13:03:41.359Z,2.40
2023-05-12T13:04:41.271Z,2.50
2023-05-12T13:05:41.268Z,3.20
2023-05-12T13:06:41.138Z,3.30
2023-05-12T13:07:41.238Z,2.80
2023-05-12T13:08:41.100Z,3.00
2023-05-12T13:09:41.201Z,2.70
2023-05-12T13:10:41.105Z,2.60
2023-05-12T13:11:41.206Z,4.20
2023-05-12T13:12:41.094Z,2.60
2023-05-12T13:13:41.257Z,2.50
2023-05-12T13:14:41.143Z,2.80
2023-05-12T13:15:41.116Z,3.00
2023-05-12T13:16:41.018Z,2.60
2023-05-12T13:17:41.279Z,3.80
2023-05-12T13:18:41.030Z,3.10
2023-05-12T13:19:41.097Z,2.60
2023-05-12T13:20:40.973Z,2.70
2023-05-12T13:21:41.033Z,2.60
2023-05-12T13:22:40.932Z,2.60
2023-05-12T13:23:40.955Z,2.50
2023-05-12T13:24:41.015Z,2.80
2023-05-12T13:25:41.136Z,2.60
2023-05-12T13:27:40.057Z,3.30
2023-05-12T13:28:40.014Z,2.80
2023-05-12T13:29:40.032Z,3.10
2023-05-12T13:30:40.051Z,3.20
2023-05-12T13:31:39.991Z,3.30
2023-05-12T13:32:40.111Z,3.70
2023-05-12T13:33:40.046Z,2.40
2023-05-12T13:34:39.979Z,3.20
2023-05-12T13:35:39.993Z,5.60
2023-05-12T13:36:39.945Z,3.10
2023-05-12T13:37:39.940Z,3.10
2023-05-12T13:38:39.945Z,2.70
2023-05-12T13:39:39.890Z,2.80
2023-05-12T13:40:39.871Z,3.00
2023-05-12T13:41:39.864Z,2.90
2023-05-12T13:42:39.842Z,2.70
2023-05-12T13:43:39.856Z,3.50
2023-05-12T13:44:39.934Z,2.60
2023-05-12T13:45:39.788Z,2.70
2023-05-12T13:46:39.857Z,2.70
2023-05-12T13:47:39.864Z,2.70
2023-05-12T13:48:39.838Z,2.70
2023-05-12T13:49:39.741Z,2.90
2023-05-12T13:50:39.781Z,2.70
2023-05-12T13:51:39.728Z,2.60
2023-05-12T13:52:44.144Z,3.70
2023-05-12T13:53:39.697Z,2.60
2023-05-12T13:54:39.677Z,3.50
2023-05-12T13:55:40.980Z,4.10
2023-05-12T13:56:39.689Z,3.40
2023-05-12T13:57:39.630Z,2.80
2023-05-12T13:58:39.678Z,3.50
2023-05-12T13:59:39.629Z,2.80
2023-05-12T14:00:39.606Z,2.50
2023-05-12T14:01:39.687Z,4.30
2023-05-12T14:02:39.626Z,2.70
2023-05-12T14:03:48.284Z,3.50
2023-05-12T14:04:39.577Z,4.00
2023-05-12T14:05:39.727Z,3.10
2023-05-12T14:06:39.496Z,2.60
2023-05-12T14:07:39.496Z,2.60
2023-05-12T14:08:47.016Z,2.60
2023-05-12T14:09:39.475Z,3.00
2023-05-12T14:10:39.462Z,4.30
2023-05-12T14:11:47.008Z,2.50
2023-05-12T14:12:39.435Z,3.10
2023-05-12T14:13:39.422Z,2.90
2023-05-12T14:14:39.409Z,2.70
2023-05-12T14:15:48.610Z,2.90
2023-05-12T14:16:40.493Z,5.60
2023-05-12T14:17:39.504Z,3.30
2023-05-12T14:18:39.947Z,4.30
2023-05-12T14:19:39.507Z,3.40
2023-05-12T14:20:39.329Z,3.70
2023-05-12T14:21:39.332Z,3.00
2023-05-12T14:22:41.344Z,3.40
2023-05-12T14:23:39.385Z,2.50
2023-05-12T14:24:39.324Z,2.80
2023-05-12T14:25:39.259Z,2.70
2023-05-12T14:26:39.316Z,3.10
2023-05-12T14:27:39.233Z,3.00
2023-05-12T14:28:39.284Z,5.50
2023-05-12T14:29:39.225Z,2.40
2023-05-12T14:30:39.251Z,3.40
2023-05-12T14:31:39.284Z,3.60
2023-05-12T14:32:39.218Z,3.40
2023-05-12T14:33:39.171Z,3.80
2023-05-12T14:34:39.143Z,3.00
2023-05-12T14:35:39.140Z,3.90
2023-05-12T14:36:39.150Z,3.20
2023-05-12T14:37:39.423Z,4.90
2023-05-12T14:38:39.167Z,2.70
2023-05-12T14:39:39.108Z,3.30
2023-05-12T14:40:40.303Z,4.30
2023-05-12T14:41:39.053Z,3.10
2023-05-12T14:42:40.057Z,3.00
2023-05-12T14:43:39.035Z,3.00
2023-05-12T14:44:39.059Z,3.90
2023-05-12T14:45:38.997Z,4.10
2023-05-12T14:46:38.982Z,4.80
2023-05-12T14:47:39.172Z,1.90
2023-05-12T14:48:38.988Z,2.80
2023-05-12T14:49:38.960Z,2.00
2023-05-12T14:50:38.951Z,3.60
2023-05-12T14:51:38.951Z,3.10
2023-05-12T14:52:39.006Z,3.00
2023-05-12T14:53:38.921Z,2.20
2023-05-12T14:54:38.962Z,2.50
2023-05-12T14:55:38.870Z,2.60
2023-05-12T14:56:38.887Z,2.80